Time;durP1;ratioP1;P1;durP2;ratioP2;P2;SDS_P1;SDS_P2;PMS_P1;PMS_P2;Temp;Humidity;BMP_temperature;BMP_pressure;BME280_temperature;BME280_humidity;BME280_pressure;Samples;Min_cycle;Max_cycle;Signal;HPM_P1;HPM_P2
2021/12/29 00:01:37;;;;;;;270.38;38.72;;;5.70;99.90;;;;;;5069784;28;20037;-40
2021/12/29 00:04:03;;;;;;;226.00;36.03;;;5.70;99.90;;;;;;5069618;28;20052;-40
2021/12/29 00:06:28;;;;;;;313.95;43.55;;;5.60;99.90;;;;;;5051620;28;20379;-39
2021/12/29 00:08:55;;;;;;;340.13;44.55;;;5.70;99.90;;;;;;5069789;28;20056;-40
2021/12/29 00:11:22;;;;;;;267.50;39.85;;;5.60;99.90;;;;;;5069110;28;20055;-41
2021/12/29 00:13:48;;;;;;;212.50;35.13;;;5.70;99.90;;;;;;5068801;28;20119;-39
2021/12/29 00:16:13;;;;;;;236.68;34.95;;;6.30;99.90;;;;;;5069110;28;20139;-40
2021/12/29 00:18:39;;;;;;;250.50;38.70;;;5.70;99.90;;;;;;5068349;28;20055;-40
2021/12/29 00:21:06;;;;;;;187.45;33.10;;;5.80;99.90;;;;;;5068400;28;20560;-40
2021/12/29 00:23:32;;;;;;;178.35;35.78;;;5.70;99.90;;;;;;5068785;28;20036;-40
2021/12/29 00:25:58;;;;;;;187.45;34.95;;;5.70;99.90;;;;;;5069135;28;20123;-40
2021/12/29 00:28:24;;;;;;;122.43;31.17;;;5.70;99.90;;;;;;5071918;28;20604;-40
2021/12/29 00:30:50;;;;;;;137.07;31.23;;;5.70;99.90;;;;;;5070166;28;20957;-40
2021/12/29 00:33:16;;;;;;;148.98;31.23;;;5.80;99.90;;;;;;5071566;28;20029;-40
2021/12/29 00:35:43;;;;;;;161.50;32.38;;;5.80;99.90;;;;;;5071880;28;20413;-40
2021/12/29 00:38:11;;;;;;;175.85;32.67;;;5.80;99.90;;;;;;5088759;28;20069;-40
2021/12/29 00:40:39;;;;;;;177.43;32.65;;;5.90;99.90;;;;;;5080427;28;20127;-40
2021/12/29 00:43:07;;;;;;;174.18;30.65;;;5.90;99.90;;;;;;5070747;28;20037;-39
2021/12/29 00:45:35;;;;;;;174.45;30.02;;;5.80;99.90;;;;;;5068389;28;20359;-40
2021/12/29 00:48:02;;;;;;;181.77;31.42;;;5.90;99.90;;;;;;5070166;28;20045;-40
2021/12/29 00:50:28;;;;;;;156.45;29.42;;;6.40;99.90;;;;;;5070309;28;20538;-40
2021/12/29 00:52:54;;;;;;;225.93;32.70;;;5.90;99.90;;;;;;5070265;28;20119;-40
2021/12/29 00:55:20;;;;;;;206.32;31.75;;;5.80;99.90;;;;;;5070541;28;20036;-39
2021/12/29 00:57:46;;;;;;;163.02;28.88;;;5.80;99.90;;;;;;5070857;28;20394;-39
2021/12/29 01:00:16;;;;;;;119.03;26.63;;;5.80;99.90;;;;;;5071017;28;20449;-40
2021/12/29 01:02:42;;;;;;;102.45;24.30;;;5.80;99.90;;;;;;5070983;28;20052;-39
2021/12/29 01:05:10;;;;;;;122.20;24.60;;;5.80;99.90;;;;;;5070531;28;20048;-40
2021/12/29 01:07:37;;;;;;;144.05;25.40;;;5.80;99.90;;;;;;5070854;28;20066;-39
2021/12/29 01:10:06;;;;;;;136.52;24.15;;;5.80;99.90;;;;;;5071267;28;20048;-39
2021/12/29 01:12:32;;;;;;;166.40;25.80;;;5.80;99.90;;;;;;5070575;28;20045;-40
2021/12/29 01:14:58;;;;;;;110.68;22.42;;;5.70;99.90;;;;;;5070165;28;20040;-39
2021/12/29 01:17:24;;;;;;;155.07;25.10;;;5.80;99.90;;;;;;5070726;28;20044;-40
2021/12/29 01:19:53;;;;;;;153.93;24.27;;;5.60;99.90;;;;;;5070573;28;20109;-40
2021/12/29 01:22:20;;;;;;;112.68;21.40;;;5.80;99.90;;;;;;5070629;28;20131;-40
2021/12/29 01:24:46;;;;;;;131.52;23.83;;;5.80;99.90;;;;;;5070111;28;20076;-40
2021/12/29 01:27:13;;;;;;;107.75;21.15;;;5.80;99.90;;;;;;5070516;28;20099;-40
2021/12/29 01:29:41;;;;;;;102.90;21.75;;;5.80;99.90;;;;;;5069952;28;20047;-40
2021/12/29 01:32:07;;;;;;;110.43;22.13;;;5.80;99.90;;;;;;5070093;28;20044;-40
2021/12/29 01:34:33;;;;;;;119.97;20.33;;;5.80;99.90;;;;;;5070178;28;20106;-40
2021/12/29 01:36:59;;;;;;;151.15;22.92;;;6.90;99.90;;;;;;5070028;28;20044;-40
2021/12/29 01:39:25;;;;;;;103.00;20.23;;;5.80;99.90;;;;;;5087226;28;20052;-40
2021/12/29 01:41:54;;;;;;;144.43;22.60;;;5.80;99.90;;;;;;5090518;28;20459;-40
2021/12/29 01:44:24;;;;;;;119.28;20.50;;;5.70;99.90;;;;;;5090314;28;20044;-40
2021/12/29 01:46:51;;;;;;;137.68;22.92;;;5.60;99.90;;;;;;5089861;28;20047;-40
2021/12/29 01:49:17;;;;;;;127.20;22.08;;;6.60;99.90;;;;;;5090143;28;20066;-40
2021/12/29 01:52:00;;;;;;;148.65;24.05;;;5.60;99.90;;;;;;5089690;28;20490;-39
2021/12/29 01:54:25;;;;;;;;;;;5.90;99.90;;;;;;5090435;28;20043;-39
2021/12/29 01:56:55;;;;;;;162.35;22.80;;;5.90;99.90;;;;;;5071523;28;19924;-39
2021/12/29 01:59:22;;;;;;;169.07;23.75;;;5.90;99.90;;;;;;5090341;28;20400;-39
2021/12/29 02:01:48;;;;;;;167.40;23.08;;;5.90;99.90;;;;;;5090202;28;20048;-40
2021/12/29 02:04:14;;;;;;;189.27;24.98;;;5.90;99.90;;;;;;5090007;28;20055;-39
2021/12/29 02:06:40;;;;;;;186.70;24.60;;;6.50;99.90;;;;;;5089790;28;20415;-39
2021/12/29 02:09:07;;;;;;;191.95;24.80;;;6.70;99.90;;;;;;5089157;28;20047;-40
2021/12/29 02:11:34;;;;;;;193.65;24.92;;;6.00;99.90;;;;;;5089603;28;20478;-39
2021/12/29 02:14:03;;;;;;;200.05;25.85;;;6.00;99.90;;;;;;5089461;28;20506;-40
2021/12/29 02:16:29;;;;;;;195.35;24.65;;;6.50;99.90;;;;;;5089773;28;20051;-40
2021/12/29 02:19:00;;;;;;;217.55;26.08;;;6.00;99.90;;;;;;5089551;28;20074;-40
2021/12/29 02:21:29;;;;;;;214.32;25.70;;;7.00;99.90;;;;;;5089669;28;20047;-40
2021/12/29 02:24:19;;;;;;;257.20;27.73;;;6.90;99.90;;;;;;5089362;28;20529;-40
2021/12/29 02:26:44;;;;;;;238.02;27.27;;;6.60;99.90;;;;;;5070809;28;20060;-39
2021/12/29 02:29:12;;;;;;;209.85;26.80;;;6.20;99.90;;;;;;5089513;28;20059;-40
2021/12/29 02:31:39;;;;;;;215.60;26.27;;;6.10;99.90;;;;;;5089529;28;20051;-40
2021/12/29 02:34:08;;;;;;;194.90;26.05;;;6.10;99.90;;;;;;5089470;28;20044;-40
2021/12/29 02:36:35;;;;;;;225.68;25.75;;;6.20;99.90;;;;;;5089540;28;20040;-39
2021/12/29 02:39:02;;;;;;;218.30;28.85;;;6.20;99.90;;;;;;5086527;28;20075;-39
2021/12/29 02:41:30;;;;;;;190.85;26.17;;;6.20;99.90;;;;;;5089361;28;20383;-40
2021/12/29 02:44:01;;;;;;;151.60;22.67;;;6.20;99.90;;;;;;5089254;28;20471;-40
2021/12/29 02:46:28;;;;;;;216.80;25.45;;;6.20;99.90;;;;;;5089631;28;20044;-39
2021/12/29 02:49:02;;;;;;;190.27;26.23;;;6.20;99.90;;;;;;5089166;28;20052;-40
2021/12/29 02:51:29;;;;;;;155.60;22.70;;;6.20;99.90;;;;;;5089673;28;20044;-39
2021/12/29 02:53:55;;;;;;;167.27;23.25;;;6.20;99.90;;;;;;5089024;28;20425;-39
2021/12/29 02:56:23;;;;;;;152.18;21.17;;;6.20;99.90;;;;;;5089389;28;20035;-40
2021/12/29 02:58:48;;;;;;;156.50;19.95;;;6.50;99.90;;;;;;5089685;28;20040;-40
2021/12/29 03:01:18;;;;;;;154.05;20.70;;;6.20;99.90;;;;;;5089450;28;20043;-39
2021/12/29 03:03:44;;;;;;;131.48;17.63;;;6.20;99.90;;;;;;5089841;28;20075;-39
2021/12/29 03:06:10;;;;;;;99.88;14.88;;;6.20;99.90;;;;;;5089438;28;20078;-39
2021/12/29 03:08:37;;;;;;;118.85;16.65;;;6.20;99.90;;;;;;5089700;28;20068;-40
2021/12/29 03:11:04;;;;;;;123.22;16.55;;;6.30;99.90;;;;;;5089458;28;20127;-39
2021/12/29 03:13:32;;;;;;;96.15;14.80;;;6.30;99.90;;;;;;5089468;28;20470;-40
2021/12/29 03:15:58;;;;;;;101.03;13.85;;;6.30;99.90;;;;;;5089076;28;20089;-40
2021/12/29 03:18:24;;;;;;;82.82;13.93;;;6.60;99.90;;;;;;5089339;28;20486;-40
2021/12/29 03:20:49;;;;;;;78.20;13.65;;;7.40;99.90;;;;;;5090548;28;20048;-39
2021/12/29 03:23:16;;;;;;;94.72;15.52;;;6.30;99.90;;;;;;5093420;28;20101;-39
2021/12/29 03:25:43;;;;;;;84.35;15.65;;;6.40;99.90;;;;;;5093144;28;20036;-40
2021/12/29 03:28:09;;;;;;;102.45;16.17;;;6.40;99.90;;;;;;5092777;28;20059;-40
2021/12/29 03:30:38;;;;;;;108.28;16.52;;;6.40;99.90;;;;;;5093101;28;20051;-40
2021/12/29 03:33:05;;;;;;;103.50;18.27;;;6.40;99.90;;;;;;5092802;28;20036;-39
2021/12/29 03:35:41;;;;;;;102.00;16.77;;;6.30;99.90;;;;;;5093106;28;20058;-40
2021/12/29 03:38:13;;;;;;;106.70;17.33;;;6.60;99.90;;;;;;5089453;28;20075;-40
2021/12/29 03:40:40;;;;;;;116.10;17.85;;;6.40;99.90;;;;;;5093059;28;20040;-40
2021/12/29 03:43:08;;;;;;;111.32;18.52;;;6.50;99.90;;;;;;5074128;28;20465;-39
2021/12/29 03:45:37;;;;;;;121.30;19.13;;;6.50;99.90;;;;;;5092785;28;20086;-39
2021/12/29 03:48:04;;;;;;;140.93;20.80;;;6.40;99.90;;;;;;5074327;28;20119;-40
2021/12/29 03:50:30;;;;;;;144.00;22.23;;;6.50;99.90;;;;;;5092644;28;20044;-39
2021/12/29 03:52:55;;;;;;;126.35;21.35;;;6.50;99.90;;;;;;5092468;28;20044;-39
2021/12/29 03:55:21;;;;;;;140.55;22.60;;;6.40;99.90;;;;;;5092196;28;20405;-40
2021/12/29 03:57:47;;;;;;;139.23;22.77;;;6.50;99.90;;;;;;5092478;28;20390;-40
2021/12/29 04:00:15;;;;;;;145.68;21.95;;;6.20;99.90;;;;;;5092378;28;20036;-40
2021/12/29 04:02:41;;;;;;;180.90;25.90;;;6.50;99.90;;;;;;5092298;28;20054;-40
2021/12/29 04:05:10;;;;;;;164.20;25.95;;;6.60;99.90;;;;;;5092234;28;20044;-39
2021/12/29 04:07:35;;;;;;;171.63;24.80;;;6.60;99.90;;;;;;5092108;28;20048;-40
2021/12/29 04:10:02;;;;;;;229.65;30.05;;;6.60;99.90;;;;;;5092073;28;20454;-40
2021/12/29 04:12:28;;;;;;;185.57;29.38;;;7.00;99.90;;;;;;5091806;28;20039;-40
2021/12/29 04:14:54;;;;;;;205.70;30.95;;;6.60;99.90;;;;;;5092211;28;20032;-39
2021/12/29 04:17:25;;;;;;;202.38;30.17;;;6.70;99.90;;;;;;5091878;28;20126;-40
2021/12/29 04:22:35;;;;;;;270.67;35.58;;;6.70;99.90;;;;;;5092173;28;20122;-39
2021/12/29 04:25:01;;;;;;;224.13;33.55;;;6.70;99.90;;;;;;5091927;28;20508;-39
2021/12/29 04:27:26;;;;;;;211.18;33.25;;;7.60;99.90;;;;;;5091725;28;20064;-40
2021/12/29 04:29:52;;;;;;;207.23;32.70;;;7.20;99.90;;;;;;5092617;28;20117;-39
2021/12/29 04:32:19;;;;;;;255.57;34.83;;;6.80;99.90;;;;;;5091547;28;20048;-40
2021/12/29 04:34:45;;;;;;;204.25;35.22;;;6.80;99.90;;;;;;5092199;28;20063;-40
2021/12/29 04:37:10;;;;;;;248.52;36.85;;;6.80;99.90;;;;;;5090168;28;20386;-39
2021/12/29 04:39:36;;;;;;;229.75;37.58;;;6.80;99.90;;;;;;5071057;28;20038;-40
2021/12/29 04:42:02;;;;;;;218.88;33.45;;;6.80;99.90;;;;;;5071736;28;20440;-39
2021/12/29 04:44:28;;;;;;;231.05;36.05;;;6.80;99.90;;;;;;5071924;28;20044;-40
2021/12/29 04:46:55;;;;;;;244.63;38.70;;;7.10;99.90;;;;;;5071450;28;20501;-39
2021/12/29 04:49:26;;;;;;;224.07;37.60;;;7.70;99.90;;;;;;5071213;28;20402;-39
2021/12/29 04:51:57;;;;;;;193.95;36.35;;;6.80;99.90;;;;;;5070991;28;20405;-40
2021/12/29 04:54:22;;;;;;;204.13;35.75;;;6.80;99.90;;;;;;5071127;28;20130;-40
2021/12/29 04:56:49;;;;;;;215.25;37.33;;;7.80;99.90;;;;;;5071333;28;20041;-40
2021/12/29 04:59:16;;;;;;;209.85;38.20;;;6.80;99.90;;;;;;5071043;28;20036;-40
2021/12/29 05:01:42;;;;;;;193.18;37.65;;;6.80;99.90;;;;;;5071227;28;20101;-39
2021/12/29 05:04:08;;;;;;;215.02;38.25;;;6.90;99.90;;;;;;5070691;28;20048;-40
2021/12/29 05:09:18;;;;;;;225.88;39.55;;;6.90;99.90;;;;;;5070656;28;20048;-40
2021/12/29 05:11:46;;;;;;;234.52;38.28;;;7.00;99.90;;;;;;5052791;28;20611;-40
2021/12/29 05:14:12;;;;;;;229.63;40.83;;;6.90;99.90;;;;;;5070753;28;20393;-40
2021/12/29 05:16:38;;;;;;;221.40;38.97;;;6.90;99.90;;;;;;5052572;28;20444;-40
2021/12/29 05:19:04;;;;;;;208.98;40.28;;;6.90;99.90;;;;;;5070538;28;20040;-40
2021/12/29 05:21:30;;;;;;;243.07;39.53;;;6.90;99.90;;;;;;5070346;28;20048;-40
2021/12/29 05:23:56;;;;;;;208.02;40.53;;;6.90;99.90;;;;;;5070509;28;20036;-40
2021/12/29 05:26:22;;;;;;;230.45;38.65;;;6.90;99.90;;;;;;5070084;28;20094;-39
2021/12/29 05:28:48;;;;;;;173.38;37.92;;;6.90;99.90;;;;;;5070422;28;20045;-40
2021/12/29 05:31:14;;;;;;;194.93;37.53;;;6.90;99.90;;;;;;5070272;28;20055;-40
2021/12/29 05:33:40;;;;;;;184.80;37.08;;;6.90;99.90;;;;;;5069633;28;20044;-40
2021/12/29 05:36:05;;;;;;;207.23;37.30;;;6.90;99.90;;;;;;5070776;28;20048;-40
2021/12/29 05:38:31;;;;;;;181.48;36.80;;;6.90;99.90;;;;;;5079333;28;20117;-39
2021/12/29 05:40:57;;;;;;;217.63;39.00;;;6.90;99.90;;;;;;5090620;28;20382;-40
2021/12/29 05:43:23;;;;;;;237.45;38.83;;;6.90;99.90;;;;;;5089261;28;20424;-40
2021/12/29 05:45:49;;;;;;;179.85;36.28;;;6.90;99.90;;;;;;5090409;28;20040;-40
2021/12/29 05:48:15;;;;;;;207.93;39.22;;;7.70;99.90;;;;;;5090164;28;20493;-39
2021/12/29 05:50:41;;;;;;;195.18;36.40;;;7.50;99.90;;;;;;5089969;28;20135;-40
2021/12/29 05:53:07;;;;;;;175.85;35.70;;;6.90;99.90;;;;;;5090049;28;20118;-40
2021/12/29 05:55:33;;;;;;;217.98;37.00;;;6.90;99.90;;;;;;5090248;28;20047;-40
2021/12/29 05:57:59;;;;;;;194.68;37.08;;;7.60;99.90;;;;;;5090249;28;20043;-40
2021/12/29 06:00:26;;;;;;;162.10;36.60;;;6.90;99.90;;;;;;5089990;28;20036;-40
2021/12/29 06:02:53;;;;;;;161.35;36.47;;;7.50;99.90;;;;;;5089885;28;20502;-39
2021/12/29 06:05:20;;;;;;;237.85;37.88;;;6.90;99.90;;;;;;5090192;28;20490;-40
2021/12/29 06:07:45;;;;;;;181.60;34.72;;;6.80;99.90;;;;;;5089989;28;20043;-40
2021/12/29 06:10:11;;;;;;;185.13;37.13;;;6.90;99.90;;;;;;5089854;28;20048;-39
2021/12/29 06:12:39;;;;;;;199.68;36.38;;;7.00;99.90;;;;;;5089861;28;20040;-39
2021/12/29 06:15:06;;;;;;;178.90;36.10;;;7.00;99.90;;;;;;5090371;28;20032;-40
2021/12/29 06:17:32;;;;;;;159.85;35.72;;;7.00;99.90;;;;;;5089860;28;20048;-40
2021/12/29 06:19:57;;;;;;;165.93;36.08;;;7.00;99.90;;;;;;5089964;28;20119;-40
2021/12/29 06:22:24;;;;;;;171.13;31.50;;;7.00;99.90;;;;;;5090010;28;20127;-40
2021/12/29 06:24:52;;;;;;;198.15;37.03;;;8.00;99.90;;;;;;5089858;28;20389;-40
2021/12/29 06:27:22;;;;;;;201.10;37.72;;;7.00;99.90;;;;;;5089890;28;20121;-40
2021/12/29 06:29:49;;;;;;;196.40;37.13;;;7.40;99.90;;;;;;5089932;28;20082;-40
2021/12/29 06:32:15;;;;;;;184.55;37.63;;;7.00;99.90;;;;;;5089777;28;20035;-40
2021/12/29 06:34:41;;;;;;;172.90;36.83;;;7.80;99.90;;;;;;5089126;28;20308;-40
2021/12/29 06:37:12;;;;;;;178.52;34.85;;;7.30;99.90;;;;;;5088298;28;20051;-42
2021/12/29 06:39:42;;;;;;;157.45;33.30;;;6.70;99.90;;;;;;5088850;28;20048;-40
2021/12/29 06:42:08;;;;;;;176.05;34.67;;;7.60;99.90;;;;;;5090219;28;20122;-40
2021/12/29 06:44:35;;;;;;;226.27;39.70;;;7.20;99.90;;;;;;5089493;28;20120;-39
2021/12/29 06:47:02;;;;;;;202.75;38.33;;;7.10;99.90;;;;;;5089859;28;20044;-40
2021/12/29 06:49:27;;;;;;;153.90;32.88;;;6.90;99.90;;;;;;5089403;28;20123;-40
2021/12/29 06:51:53;;;;;;;194.85;36.28;;;6.90;99.90;;;;;;5089396;28;20156;-39
2021/12/29 06:54:19;;;;;;;169.02;35.05;;;6.90;99.90;;;;;;5089879;28;20527;-40
2021/12/29 06:56:44;;;;;;;162.55;33.58;;;6.90;99.90;;;;;;5093620;28;20047;-39
2021/12/29 06:59:10;;;;;;;164.70;32.72;;;7.70;99.90;;;;;;5093760;28;20089;-40
2021/12/29 07:01:36;;;;;;;180.70;32.95;;;6.90;99.90;;;;;;5093248;28;20051;-39
2021/12/29 07:04:03;;;;;;;178.85;34.80;;;6.90;99.90;;;;;;5093494;28;20528;-39
2021/12/29 07:06:29;;;;;;;152.18;31.98;;;7.00;99.90;;;;;;5093679;28;20068;-40
2021/12/29 07:08:54;;;;;;;210.68;34.20;;;6.90;99.90;;;;;;5093238;28;20044;-40
2021/12/29 07:11:20;;;;;;;185.82;33.90;;;6.90;99.90;;;;;;5093274;28;20040;-39
2021/12/29 07:13:46;;;;;;;189.13;34.67;;;6.60;99.90;;;;;;5092910;28;20048;-39
2021/12/29 07:16:12;;;;;;;208.63;34.40;;;6.80;99.90;;;;;;5093205;28;20051;-39
2021/12/29 07:18:38;;;;;;;187.48;33.42;;;6.90;99.90;;;;;;5074619;28;20085;-40
2021/12/29 07:21:04;;;;;;;169.60;32.13;;;6.90;99.90;;;;;;5093355;28;20048;-40
2021/12/29 07:23:30;;;;;;;180.77;32.00;;;6.90;99.90;;;;;;5093077;28;20122;-39
2021/12/29 07:25:56;;;;;;;172.38;32.03;;;7.90;99.90;;;;;;5092814;28;20040;-40
2021/12/29 07:28:21;;;;;;;169.60;31.20;;;6.90;99.90;;;;;;5092967;28;20052;-39
2021/12/29 07:30:47;;;;;;;154.85;31.35;;;6.90;99.90;;;;;;5092644;28;20055;-40
2021/12/29 07:33:13;;;;;;;150.30;30.35;;;7.30;99.90;;;;;;5093281;28;20081;-39
2021/12/29 07:35:39;;;;;;;168.63;32.00;;;8.00;99.90;;;;;;5093403;28;20051;-40
2021/12/29 07:38:04;;;;;;;144.63;31.10;;;7.90;99.90;;;;;;5089755;28;20137;-40
2021/12/29 07:40:30;;;;;;;152.27;29.02;;;6.90;99.90;;;;;;5092730;28;20098;-39
2021/12/29 07:42:56;;;;;;;158.95;30.17;;;7.00;99.90;;;;;;5092518;28;20044;-39
2021/12/29 07:45:24;;;;;;;135.50;29.05;;;7.20;99.90;;;;;;5092555;28;20130;-40
2021/12/29 07:47:50;;;;;;;151.68;31.98;;;7.30;99.90;;;;;;5092644;28;20056;-40
2021/12/29 07:50:18;;;;;;;153.20;29.95;;;6.90;99.90;;;;;;5092396;28;20093;-39
2021/12/29 07:52:48;;;;;;;168.95;30.90;;;7.00;99.90;;;;;;5092530;28;20032;-40
2021/12/29 07:55:18;;;;;;;156.48;30.98;;;7.00;99.90;;;;;;5092582;28;20096;-40
2021/12/29 07:57:44;;;;;;;162.40;30.33;;;7.50;99.90;;;;;;5092433;28;20048;-39
2021/12/29 08:00:11;;;;;;;176.82;30.60;;;8.00;99.90;;;;;;5074249;28;20371;-40
2021/12/29 08:02:37;;;;;;;143.60;29.92;;;7.00;99.90;;;;;;5092539;28;20052;-40
2021/12/29 08:05:08;;;;;;;179.88;30.30;;;7.00;99.90;;;;;;5092001;28;20044;-40
2021/12/29 08:07:34;;;;;;;173.90;30.40;;;7.00;99.90;;;;;;5091645;28;20040;-40
2021/12/29 08:10:00;;;;;;;170.35;30.88;;;6.90;99.90;;;;;;5087366;28;20040;-40
2021/12/29 08:12:27;;;;;;;142.50;28.98;;;7.00;99.90;;;;;;5071519;28;20366;-39
2021/12/29 08:14:52;;;;;;;150.35;28.77;;;7.00;99.90;;;;;;5070873;28;20071;-39
2021/12/29 08:17:18;;;;;;;172.52;31.02;;;7.40;99.90;;;;;;5071684;28;20117;-39
2021/12/29 08:19:44;;;;;;;145.43;31.30;;;7.00;99.90;;;;;;5071627;28;20538;-40
2021/12/29 08:22:10;;;;;;;145.35;29.23;;;7.00;99.90;;;;;;5070978;28;20142;-40
2021/12/29 08:24:37;;;;;;;157.68;29.42;;;7.00;99.90;;;;;;5053627;28;20048;-40
2021/12/29 08:27:03;;;;;;;166.80;28.63;;;7.10;99.90;;;;;;5070844;28;20052;-40
2021/12/29 08:29:29;;;;;;;150.90;28.83;;;7.10;99.90;;;;;;5071187;28;20518;-40
2021/12/29 08:31:57;;;;;;;161.00;30.02;;;7.10;99.90;;;;;;5070956;28;20080;-39
2021/12/29 08:34:23;;;;;;;157.38;28.23;;;7.10;99.90;;;;;;5071298;28;20032;-40
2021/12/29 08:36:49;;;;;;;153.48;27.90;;;7.10;99.90;;;;;;5071075;28;20075;-40
2021/12/29 08:39:15;;;;;;;163.55;27.40;;;7.10;99.90;;;;;;5055319;28;20067;-41
2021/12/29 08:41:41;;;;;;;159.45;28.25;;;7.00;99.90;;;;;;5089980;28;20036;-40
2021/12/29 08:44:06;;;;;;;190.52;30.83;;;7.20;99.90;;;;;;5072528;28;20141;-39
2021/12/29 08:46:32;;;;;;;188.88;30.50;;;7.20;99.90;;;;;;5085584;28;20068;-40
2021/12/29 08:48:58;;;;;;;215.48;32.78;;;7.20;99.90;;;;;;5091036;28;20036;-40
2021/12/29 08:51:24;;;;;;;206.30;31.48;;;7.20;99.90;;;;;;5090839;28;20036;-40
2021/12/29 08:53:50;;;;;;;238.00;31.85;;;7.20;99.90;;;;;;5090815;28;20036;-40
2021/12/29 08:56:16;;;;;;;250.45;33.13;;;7.20;99.90;;;;;;5090451;28;20039;-40
2021/12/29 08:58:44;;;;;;;239.35;32.58;;;7.20;99.90;;;;;;5090818;28;20393;-39
2021/12/29 09:01:10;;;;;;;274.98;34.10;;;7.20;99.90;;;;;;5090324;28;20040;-40
2021/12/29 09:03:36;;;;;;;281.50;36.05;;;7.20;99.90;;;;;;5090536;28;20044;-40
2021/12/29 09:06:02;;;;;;;234.32;34.10;;;7.20;99.90;;;;;;5090103;28;20513;-40
2021/12/29 09:08:28;;;;;;;248.88;34.22;;;7.30;99.90;;;;;;5090402;28;20189;-41
2021/12/29 09:10:54;;;;;;;261.08;35.42;;;8.20;99.90;;;;;;5088094;28;20464;-40
2021/12/29 09:13:20;;;;;;;255.95;33.88;;;7.30;99.90;;;;;;5090930;28;20036;-40
2021/12/29 09:15:46;;;;;;;247.30;36.72;;;7.70;99.90;;;;;;5090554;28;20115;-40
2021/12/29 09:18:12;;;;;;;189.68;32.70;;;7.30;99.90;;;;;;5089853;28;20028;-40
2021/12/29 09:20:45;;;;;;;197.10;35.17;;;7.70;99.90;;;;;;5090439;28;20500;-40
2021/12/29 09:23:11;;;;;;;203.07;34.10;;;7.40;99.90;;;;;;5090119;28;20482;-40
2021/12/29 09:25:39;;;;;;;195.07;33.90;;;7.40;99.90;;;;;;5089942;28;20050;-40
2021/12/29 09:28:06;;;;;;;174.95;31.80;;;7.60;99.90;;;;;;5089684;28;20052;-40
2021/12/29 09:30:33;;;;;;;160.73;28.98;;;7.40;99.90;;;;;;5090414;28;20527;-40
2021/12/29 09:32:59;;;;;;;162.52;29.33;;;7.80;99.90;;;;;;5089989;28;20474;-40
2021/12/29 09:35:27;;;;;;;166.88;29.55;;;7.40;99.90;;;;;;5090125;28;20043;-40
2021/12/29 09:37:53;;;;;;;199.98;31.77;;;7.50;99.90;;;;;;5088645;28;20028;-40
2021/12/29 09:40:20;;;;;;;151.32;29.38;;;7.50;99.90;;;;;;5086804;28;20044;-40
2021/12/29 09:42:47;;;;;;;159.80;28.60;;;7.50;99.90;;;;;;5089698;28;20086;-40
2021/12/29 09:45:13;;;;;;;145.05;28.23;;;7.60;99.90;;;;;;5084169;28;20103;-40
2021/12/29 09:47:39;;;;;;;140.10;27.95;;;7.60;99.90;;;;;;5090010;28;20428;-40
2021/12/29 09:50:10;;;;;;;145.00;27.08;;;7.90;99.90;;;;;;5089462;28;20557;-40
2021/12/29 09:52:36;;;;;;;150.85;25.98;;;7.70;99.90;;;;;;5074375;28;20127;-40
2021/12/29 09:55:04;;;;;;;125.95;25.13;;;8.70;99.90;;;;;;5089609;28;20056;-41
2021/12/29 09:57:35;;;;;;;130.32;23.75;;;7.70;99.90;;;;;;5075637;28;20043;-40
2021/12/29 10:00:06;;;;;;;156.25;25.75;;;7.80;99.90;;;;;;5079229;28;20118;-40
2021/12/29 10:02:32;;;;;;;143.02;25.10;;;7.80;99.90;;;;;;5066992;28;20174;-40
2021/12/29 10:04:59;;;;;;;129.77;24.33;;;7.90;99.90;;;;;;5069071;28;20119;-40
2021/12/29 10:07:26;;;;;;;145.07;23.10;;;7.70;99.90;;;;;;5068764;28;20040;-40
2021/12/29 10:09:53;;;;;;;125.07;24.15;;;8.20;99.90;;;;;;5069037;28;20048;-40
2021/12/29 10:12:21;;;;;;;109.75;22.27;;;8.20;99.90;;;;;;5069113;28;20044;-40
2021/12/29 10:14:56;;;;;;;106.80;20.90;;;7.90;99.90;;;;;;5068889;28;20032;-40
2021/12/29 10:17:27;;;;;;;114.80;22.23;;;8.10;99.90;;;;;;5068869;28;20036;-40
2021/12/29 10:20:16;;;;;;;107.25;21.35;;;7.90;99.90;;;;;;5069228;28;20147;-39
2021/12/29 10:22:43;;;;;;;107.93;19.92;;;8.00;99.90;;;;;;5069176;28;20040;-40
2021/12/29 10:25:13;;;;;;;99.90;20.33;;;8.20;99.90;;;;;;5068953;28;20092;-40
2021/12/29 10:27:40;;;;;;;98.65;20.40;;;8.10;99.90;;;;;;5059848;28;20498;-40
2021/12/29 10:30:24;;;;;;;100.88;20.60;;;8.00;99.90;;;;;;5058706;28;20165;-40
2021/12/29 10:32:51;;;;;;;88.55;19.13;;;8.10;99.90;;;;;;5058871;28;20041;-40
2021/12/29 10:35:26;;;;;;;56.90;14.80;;;8.10;99.90;;;;;;5057814;28;20037;-40
2021/12/29 10:37:55;;;;;;;56.88;14.90;;;8.30;99.90;;;;;;5059534;28;20435;-40
2021/12/29 10:40:29;;;;;;;55.30;13.95;;;8.10;99.90;;;;;;5057966;28;20040;-40
2021/12/29 10:42:58;;;;;;;56.55;14.30;;;8.10;99.90;;;;;;5057858;28;20116;-40
2021/12/29 10:45:38;;;;;;;51.90;13.70;;;8.30;99.90;;;;;;5051196;28;20498;-40
2021/12/29 10:48:24;;;;;;;38.63;12.00;;;8.00;99.90;;;;;;5049589;28;20087;-40
2021/12/29 10:51:02;;;;;;;39.75;12.85;;;8.20;99.90;;;;;;5049547;28;20496;-40
2021/12/29 10:53:30;;;;;;;42.92;11.60;;;8.10;99.90;;;;;;5049164;28;20053;-40
2021/12/29 10:55:56;;;;;;;46.85;12.63;;;8.70;99.90;;;;;;5049487;28;20073;-40
2021/12/29 10:58:25;;;;;;;39.00;11.40;;;8.20;99.90;;;;;;5049122;28;20064;-40
2021/12/29 11:01:10;;;;;;;37.65;12.13;;;8.90;99.90;;;;;;5048834;28;20041;-37
2021/12/29 11:03:45;;;;;;;29.00;10.50;;;8.10;99.90;;;;;;5032737;28;20041;-37
2021/12/29 11:06:15;;;;;;;37.70;11.65;;;7.80;99.90;;;;;;5037662;28;20179;-38
2021/12/29 11:08:58;;;;;;;42.25;13.25;;;8.00;99.90;;;;;;5039260;28;20028;-41
2021/12/29 11:11:45;;;;;;;42.15;11.80;;;8.10;99.90;;;;;;5040702;28;20044;-41
2021/12/29 11:14:18;;;;;;;32.70;10.50;;;8.00;99.90;;;;;;5042401;28;20029;-42
2021/12/29 11:16:46;;;;;;;44.75;12.40;;;7.90;99.90;;;;;;5043109;28;20087;-41
2021/12/29 11:19:13;;;;;;;37.65;11.43;;;7.90;99.90;;;;;;5043699;28;20044;-56
2021/12/29 11:21:41;;;;;;;40.90;11.85;;;7.90;99.90;;;;;;5042479;28;20045;-42
2021/12/29 11:24:23;;;;;;;43.80;12.88;;;7.80;99.90;;;;;;5041377;28;20095;-42
2021/12/29 11:26:50;;;;;;;45.22;13.02;;;8.40;99.90;;;;;;5048194;28;20111;-43
2021/12/29 11:29:19;;;;;;;48.95;14.02;;;7.80;99.90;;;;;;5065495;28;20041;-43
2021/12/29 11:32:04;;;;;;;44.13;13.60;;;8.40;99.90;;;;;;5064233;28;20045;-44
2021/12/29 11:34:29;;;;;;;57.72;15.65;;;7.80;99.90;;;;;;5065886;28;20056;-42
2021/12/29 11:37:04;;;;;;;57.38;15.57;;;7.80;99.90;;;;;;5065494;28;20556;-40
2021/12/29 11:39:33;;;;;;;59.78;15.80;;;7.80;99.90;;;;;;5064291;28;20029;-40
2021/12/29 11:42:06;;;;;;;52.35;15.00;;;7.90;99.90;;;;;;5065500;28;20046;-45
2021/12/29 11:44:31;;;;;;;56.58;15.45;;;7.90;99.90;;;;;;5068718;28;20071;-40
2021/12/29 11:46:58;;;;;;;46.80;14.07;;;7.90;99.90;;;;;;5051178;28;20467;-47
2021/12/29 11:49:24;;;;;;;51.22;15.00;;;7.90;99.90;;;;;;5069114;28;20032;-40
2021/12/29 11:51:58;;;;;;;55.50;15.15;;;7.90;99.90;;;;;;5068168;28;20041;-41
2021/12/29 11:55:04;;;;;;;49.53;15.23;;;8.30;99.90;;;;;;5068118;28;20162;-41
2021/12/29 11:57:32;;;;;;;47.88;15.05;;;8.00;99.90;;;;;;5068004;28;20104;-44
2021/12/29 12:00:17;;;;;;;60.95;16.60;;;8.00;99.90;;;;;;5067706;28;20470;-41
2021/12/29 12:02:43;;;;;;;54.08;16.73;;;8.10;99.90;;;;;;5053840;28;20410;-39
2021/12/29 12:05:13;;;;;;;52.00;16.48;;;8.10;99.90;;;;;;5062454;28;20127;-44
2021/12/29 12:07:40;;;;;;;60.92;17.50;;;8.20;99.90;;;;;;5066159;28;20483;-39
2021/12/29 12:10:11;;;;;;;56.45;17.05;;;8.00;99.90;;;;;;5061978;28;20036;-39
2021/12/29 12:12:44;;;;;;;55.55;17.13;;;8.30;99.90;;;;;;5066382;28;20041;-41
2021/12/29 12:15:11;;;;;;;;;;;8.30;99.90;;;;;;5050267;28;20752;-38
2021/12/29 12:17:38;;;;;;;74.45;18.73;;;8.30;99.90;;;;;;5067005;28;19940;-37
2021/12/29 12:20:14;;;;;;;59.30;18.75;;;8.30;99.90;;;;;;5067903;28;20033;-38
2021/12/29 12:22:48;;;;;;;73.22;21.27;;;8.30;99.90;;;;;;5067699;28;20039;-42
2021/12/29 12:25:25;;;;;;;64.38;18.85;;;8.30;99.90;;;;;;5066723;28;20035;-39
2021/12/29 12:27:51;;;;;;;64.32;20.45;;;8.30;99.90;;;;;;5066415;28;20083;-53
2021/12/29 12:30:23;;;;;;;57.70;19.08;;;8.20;99.90;;;;;;5068142;28;20459;-44
2021/12/29 12:32:57;;;;;;;72.70;20.40;;;8.20;99.90;;;;;;5067028;28;20036;-45
2021/12/29 12:35:44;;;;;;;53.20;18.25;;;8.60;99.90;;;;;;5067589;28;20494;-47
2021/12/29 12:38:19;;;;;;;49.92;18.33;;;8.20;99.90;;;;;;5068397;28;20082;-43
2021/12/29 12:40:46;;;;;;;63.38;19.60;;;8.20;99.90;;;;;;5064593;28;20379;-40